Latest Weather Observations for Lihou Reef Lighthouse

IDQ60801

Issued at 2:02 pm EST Tuesday 29 September 2020 (issued every 10 minutes, with the page automatically refreshed every 10 minutes)

About weather observations | Map of weather stations | Latest weather observations for QLD | Other Formats
Station Details ID: 200880 Name: LIHOU REEF LIGHTHOUSE Lat: -17.13 Lon: 152.15 Height: 10.26 m
Data from the previous 72 hours. | See also: Recent months at Lihou Reef Lighthouse
Date/Time
EST
Temp
°C
App
Temp
°C
Dew
Point
°C
Rel
Hum
%
Delta-T
°C
Wind Press
QNH
hPa
Press
MSL
hPa
Rain since
9am
mm
Dir  Spd
km/h
Gust
km/h
Spd
kts
Gust
kts
29/02:00pm 24.0 - - - - SE 33 39 18 21 1014.4 1014.3 -
29/01:30pm 24.2 - - - - SE 33 41 18 22 1015.0 1014.9 -
29/01:00pm 23.9 - - - - SE 35 41 19 22 1015.5 1015.4 -
29/12:30pm 24.1 - - - - SE 33 39 18 21 1016.1 1016.0 -
29/12:00pm 24.1 - - - - SE 35 43 19 23 1016.3 1016.2 -
29/11:30am 24.1 - - - - SE 37 43 20 23 1016.7 1016.6 -
29/11:00am 24.0 - - - - SE 37 44 20 24 1017.1 1017.0 -
29/10:30am 24.1 - - - - SE 35 43 19 23 1017.6 1017.5 -
29/10:00am 24.0 - - - - SE 35 46 19 25 1017.7 1017.6 -
29/09:30am 24.3 - - - - SE 35 43 19 23 1017.7 1017.6 -
29/09:00am 24.2 - - - - SE 39 46 21 25 1017.4 1017.3 -
29/08:30am 23.8 - - - - SE 39 46 21 25 1017.2 1017.1 -
29/08:00am 23.9 - - - - SE 39 48 21 26 1017.1 1017.0 -
29/07:30am 23.9 - - - - SE 41 48 22 26 1016.5 1016.4 -
29/07:00am 24.0 - - - - SE 41 48 22 26 1016.3 1016.2 -
29/06:30am 23.8 - - - - SE 41 50 22 27 1015.9 1015.8 -
29/06:00am 23.6 - - - - SE 43 48 23 26 1015.5 1015.4 -
29/05:30am 23.6 - - - - SE 41 46 22 25 1015.3 1015.2 -
29/05:00am 23.6 - - - - SE 43 50 23 27 1015.1 1015.0 -
29/04:30am 23.8 - - - - SE 43 52 23 28 1014.7 1014.6 -
29/04:00am 23.6 - - - - SE 44 52 24 28 1014.4 1014.3 -
29/03:30am 23.5 - - - - SE 44 56 24 30 1014.3 1014.2 -
29/03:00am 23.5 - - - - SE 44 54 24 29 1014.4 1014.3 -
29/02:30am 23.3 - - - - SE 46 56 25 30 1014.8 1014.7 -
29/02:00am 23.6 - - - - SE 44 56 24 30 1015.1 1015.0 -
29/01:30am 23.3 - - - - SE 44 57 24 31 1015.4 1015.3 -
29/01:00am 23.5 - - - - SE 46 56 25 30 1015.8 1015.7 -
29/12:30am 23.5 - - - - SE 46 57 25 31 1016.3 1016.2 -
29/12:00am 23.6 - - - - SE 46 57 25 31 1016.4 1016.3 -
 
Date/Time
EST
Temp
°C
App
Temp
°C
Dew
Point
°C
Rel
Hum
%
Delta-T
°C
Wind Press
QNH
hPa
Press
MSL
hPa
Rain since
9am
mm
Dir  Spd
km/h
Gust
km/h
Spd
kts
Gust
kts
28/11:30pm 23.8 - - - - SE 46 54 25 29 1016.8 1016.7 -
28/11:00pm 24.0 - - - - SE 44 54 24 29 1017.0 1016.9 -
28/10:30pm 24.0 - - - - SE 44 54 24 29 1017.3 1017.2 -
28/10:00pm 24.1 - - - - SE 43 54 23 29 1017.2 1017.1 -
28/09:30pm 24.1 - - - - SE 46 54 25 29 1017.0 1016.9 -
28/09:00pm 24.1 - - - - SE 44 56 24 30 1017.0 1016.9 -
28/08:30pm 24.2 - - - - SE 43 54 23 29 1016.8 1016.7 -
28/08:00pm 24.4 - - - - SE 41 50 22 27 1016.5 1016.4 -
28/07:30pm 24.1 - - - - SE 41 48 22 26 1016.3 1016.2 -
28/07:00pm 24.2 - - - - SE 39 46 21 25 1016.1 1016.0 -
28/06:30pm 24.3 - - - - SE 39 52 21 28 1015.7 1015.6 -
28/06:00pm 24.3 - - - - SE 37 44 20 24 1015.5 1015.4 -
28/05:30pm 24.6 - - - - SE 39 46 21 25 1015.0 1014.9 -
28/05:00pm 24.7 - - - - SE 37 43 20 23 1014.9 1014.8 -
28/04:30pm 24.9 - - - - SE 37 44 20 24 1014.4 1014.3 -
28/04:00pm 25.0 - - - - SE 37 43 20 23 1014.2 1014.1 -
28/03:30pm 25.0 - - - - SE 35 43 19 23 1014.1 1014.0 -
28/03:00pm 25.1 - - - - ESE 37 43 20 23 1014.2 1014.1 -
28/02:30pm 25.3 - - - - ESE 35 41 19 22 1014.4 1014.3 -
28/02:00pm 25.1 - - - - ESE 35 41 19 22 1014.7 1014.6 -
28/01:30pm 25.1 - - - - SE 37 43 20 23 1015.0 1014.9 -
28/01:00pm 25.1 - - - - SE 37 43 20 23 1015.3 1015.2 -
28/12:30pm 25.1 - - - - SE 37 43 20 23 1015.9 1015.8 -
28/12:00pm 25.1 - - - - SE 37 44 20 24 1016.3 1016.2 -
28/11:30am 25.1 - - - - SE 37 44 20 24 1016.6 1016.5 -
28/11:00am 25.1 - - - - ESE 35 44 19 24 1017.1 1017.0 -
28/10:30am 25.1 - - - - ESE 39 46 21 25 1017.4 1017.3 -
28/10:00am 25.4 - - - - ESE 39 44 21 24 1017.7 1017.6 -
28/09:30am 25.2 - - - - ESE 37 44 20 24 1017.7 1017.6 -
28/09:00am 25.2 - - - - ESE 39 46 21 25 1017.5 1017.4 -
28/08:30am 25.1 - - - - ESE 39 46 21 25 1017.4 1017.3 -
28/08:00am 25.1 - - - - ESE 39 44 21 24 1017.1 1017.0 -
28/07:30am 25.1 - - - - SE 39 44 21 24 1016.7 1016.6 -
28/07:00am 25.1 - - - - SE 37 43 20 23 1016.3 1016.2 -
28/06:30am 24.8 - - - - ESE 37 43 20 23 1016.0 1015.9 -
28/06:00am 24.8 - - - - ESE 35 43 19 23 1015.6 1015.5 -
28/05:30am 24.6 - - - - ESE 35 43 19 23 1015.4 1015.3 -
28/05:00am 24.6 - - - - ESE 35 43 19 23 1015.3 1015.2 -
28/04:30am 24.5 - - - - ESE 35 43 19 23 1015.2 1015.1 -
28/04:00am 24.9 - - - - ESE 37 43 20 23 1015.1 1015.0 -
28/03:30am 24.9 - - - - ESE 33 41 18 22 1015.0 1014.9 -
28/03:00am 24.6 - - - - ESE 35 41 19 22 1014.9 1014.8 -
28/02:30am 24.8 - - - - ESE 35 41 19 22 1015.1 1015.0 -
28/02:00am 24.6 - - - - ESE 33 39 18 21 1015.6 1015.5 -
28/01:30am 24.9 - - - - ESE 33 39 18 21 1015.9 1015.8 -
28/01:00am 25.0 - - - - ESE 32 39 17 21 1016.0 1015.9 -
28/12:30am 24.9 - - - - ESE 32 37 17 20 1016.2 1016.1 -
28/12:00am 24.9 - - - - ESE 33 39 18 21 1016.6 1016.5 -
 
Date/Time
EST
Temp
°C
App
Temp
°C
Dew
Point
°C
Rel
Hum
%
Delta-T
°C
Wind Press
QNH
hPa
Press
MSL
hPa
Rain since
9am
mm
Dir  Spd
km/h
Gust
km/h
Spd
kts
Gust
kts
27/11:30pm 24.8 - - - - ESE 32 35 17 19 1016.9 1016.8 -
27/11:00pm 25.0 - - - - ESE 32 37 17 20 1017.3 1017.2 -
27/10:30pm 25.1 - - - - ESE 33 41 18 22 1017.4 1017.3 -
27/10:00pm 25.1 - - - - SE 32 37 17 20 1017.3 1017.2 -
27/09:30pm 25.0 - - - - SE 32 39 17 21 1017.2 1017.1 -
27/09:00pm 25.0 - - - - ESE 30 35 16 19 1017.1 1017.0 -
27/08:30pm 25.0 - - - - ESE 30 35 16 19 1016.8 1016.7 -
27/08:00pm 25.0 - - - - ESE 28 35 15 19 1016.8 1016.7 -
27/07:30pm 25.0 - - - - SE 30 33 16 18 1016.4 1016.3 -
27/07:00pm 24.9 - - - - SE 30 33 16 18 1016.0 1015.9 -
27/06:30pm 24.9 - - - - SE 30 35 16 19 1015.7 1015.6 -
27/06:00pm 25.1 - - - - SE 28 33 15 18 1015.4 1015.3 -
27/05:30pm 25.0 - - - - SE 28 32 15 17 1015.1 1015.0 -
27/05:00pm 25.3 - - - - ESE 26 32 14 17 1014.8 1014.7 -
27/04:30pm 25.2 - - - - SE 26 30 14 16 1014.6 1014.5 -
27/04:00pm 25.3 - - - - ESE 26 33 14 18 1014.5 1014.4 -
27/03:30pm 25.2 - - - - SE 28 32 15 17 1014.2 1014.1 -
27/03:00pm 25.2 - - - - SE 26 30 14 16 1014.6 1014.5 -
27/02:30pm 25.2 - - - - SE 26 30 14 16 1014.8 1014.7 -
27/02:00pm 25.6 - - - - SE 28 33 15 18 1015.2 1015.1 -
27/01:30pm 25.2 - - - - SE 28 33 15 18 1015.4 1015.3 -
27/01:00pm 25.4 - - - - ESE 28 33 15 18 1015.8 1015.7 -
27/12:30pm 25.5 - - - - ESE 28 32 15 17 1016.2 1016.1 -
27/12:00pm 25.4 - - - - SE 28 33 15 18 1016.5 1016.4 -
27/11:30am 25.4 - - - - SE 30 33 16 18 1016.9 1016.8 -
27/11:00am 25.5 - - - - ESE 28 33 15 18 1017.3 1017.2 -
27/10:30am 25.5 - - - - ESE 28 33 15 18 1017.4 1017.3 -
27/10:00am 25.6 - - - - ESE 30 33 16 18 1017.5 1017.4 -
27/09:30am 25.5 - - - - ESE 28 33 15 18 1017.4 1017.3 -
27/09:00am 25.4 - - - - ESE 28 33 15 18 1017.3 1017.2 -
27/08:30am 25.3 - - - - ESE 28 32 15 17 1017.2 1017.1 -
27/08:00am 25.1 - - - - E 26 30 14 16 1017.0 1016.9 -
27/07:30am 25.0 - - - - ESE 28 32 15 17 1016.6 1016.5 -
27/07:00am 24.9 - - - - ESE 26 32 14 17 1016.1 1016.0 -
27/06:30am 24.8 - - - - ESE 26 30 14 16 1015.6 1015.5 -
27/06:00am 24.4 - - - - ESE 26 33 14 18 1015.3 1015.2 -
27/05:30am 24.5 - - - - ESE 26 32 14 17 1014.9 1014.8 -
27/05:00am 24.4 - - - - ESE 26 30 14 16 1014.7 1014.6 -
27/04:30am 24.4 - - - - ESE 24 30 13 16 1014.4 1014.3 -
27/04:00am 24.6 - - - - ESE 24 30 13 16 1014.2 1014.1 -
27/03:30am 24.4 - - - - ESE 24 30 13 16 1014.2 1014.1 -
27/03:00am 24.7 - - - - ESE 24 30 13 16 1014.2 1014.1 -
27/02:30am 24.4 - - - - SE 24 28 13 15 1014.5 1014.4 -
27/02:00am 24.6 - - - - SE 24 30 13 16 1014.7 1014.6 -
27/01:30am 24.5 - - - - SE 24 32 13 17 1015.0 1014.9 -
27/01:00am 24.5 - - - - SE 24 30 13 16 1015.3 1015.2 -
27/12:30am 24.5 - - - - SE 24 30 13 16 1015.7 1015.6 -
27/12:00am 24.7 - - - - SE 24 28 13 15 1015.9 1015.8 -
 
Date/Time
EST
Temp
°C
App
Temp
°C
Dew
Point
°C
Rel
Hum
%
Delta-T
°C
Wind Press
QNH
hPa
Press
MSL
hPa
Rain since
9am
mm
Dir  Spd
km/h
Gust
km/h
Spd
kts
Gust
kts
26/11:30pm 24.6 - - - - SE 26 30 14 16 1016.2 1016.1 -
26/11:00pm 24.6 - - - - SSE 28 32 15 17 1016.3 1016.2 -
26/10:30pm 24.6 - - - - SSE 28 33 15 18 1016.7 1016.6 -
26/10:00pm 24.6 - - - - SSE 30 35 16 19 1016.5 1016.4 -
26/09:30pm 24.6 - - - - SSE 30 35 16 19 1016.6 1016.5 -
26/09:00pm 24.7 - - - - SSE 28 33 15 18 1016.7 1016.6 -
26/08:30pm 24.6 - - - - SSE 28 33 15 18 1016.5 1016.4 -
26/08:00pm 24.5 - - - - SSE 28 33 15 18 1016.1 1016.0 -
26/07:30pm 24.8 - - - - SSE 26 30 14 16 1016.1 1016.0 -
26/07:00pm 24.7 - - - - SSE 26 32 14 17 1015.9 1015.8 -
26/06:30pm 24.6 - - - - SSE 26 30 14 16 1015.5 1015.4 -
26/06:00pm 24.6 - - - - SSE 26 30 14 16 1015.2 1015.1 -
26/05:30pm 24.6 - - - - SSE 24 28 13 15 1015.0 1014.9 -
26/05:00pm 24.9 - - - - SSE 24 28 13 15 1014.8 1014.7 -
26/04:30pm 25.2 - - - - SSE 19 22 10 12 1014.5 1014.4 -
26/04:00pm 25.3 - - - - SSE 17 20 9 11 1014.3 1014.2 -
26/03:30pm 25.3 - - - - SSE 17 20 9 11 1014.3 1014.2 -
26/03:00pm 25.3 - - - - SSE 15 19 8 10 1014.2 1014.1 -
26/02:30pm 25.2 - - - - SSE 15 19 8 10 1014.2 1014.1 -

Other formats

Comma delimited format used in spreadsheet applications
http://www.bom.gov.au/fwo/IDQ60801/IDQ60801.94293.axf

JavaScript Object Notation format (JSON) in row-major order
http://www.bom.gov.au/fwo/IDQ60801/IDQ60801.94293.json

Data quality

Most of these data are generated automatically and are frequently updated. Quality checks on data are not normally performed. It is possible for incorrect values to appear. Refer to information at About Latest Weather Observations and please check the disclaimer before using these data.